KSYI

Details ICAO KSYI
Name BOMAR FLD SHELBYVILLE MUNI
Region United States
Timezone America/Chicago (UTC-6.0)
Plans Departing 0
Arriving 3
Stats Elevation 800 ft / 244 m (AMSL)
Location 35.560097° -86.442487°
Runways 1
Magnetic Variation 3.937° W
Sunrise 2017-12-14 12:48:47 UTC / 2017-12-14 06:48:47 Local
Sunset 2017-12-14 22:35:08 UTC / 2017-12-14 16:35:08 Local
Advertisement - Login to hide

Runways

ID Width Length Bearing (true) Bearing (mag) Surface Threshold Offset Overrun Length
18 100 ft / 30 m 5,016 ft / 1,529 m 179.35° 183.29° Asphalt 0 ft / 0 m 0 ft / 0 m
36 100 ft / 30 m 5,016 ft / 1,529 m 359.35° 3.29° Asphalt 0 ft / 0 m 0 ft / 0 m

Map

Weather


0- 5 10 15 20 25 30 35+ Temperature / ° C

Clouds and Precipitation
Forecast for 2017-12-15 00:00 UTC. Updated 9 minutes ago

Ground ~20,000 ft ~40,000 ft Winds

METAR

KSYI 142115Z AUTO 36009KT 10SM CLR 06/M02 A3000 RMK A01

TAF

Not found

Frequencies

Recorded 119.27 MHz AWOS 3
Unicom 122.80 MHz CTAF/UNICOM
Warning: Do not use this data for real-world aviation or navigation. No guarantee of current accuracy is given.